sensor_id;sensor_type;location;lat;lon;timestamp;P1;durP1;ratioP1;P2;durP2;ratioP2
10170;SDS011;5127;50.922;6.988;2024-01-30T00:01:02;8.63;;;6.67;;
10170;SDS011;5127;50.922;6.988;2024-01-30T00:03:29;7.57;;;6.40;;
10170;SDS011;5127;50.922;6.988;2024-01-30T00:05:56;7.93;;;6.23;;
10170;SDS011;5127;50.922;6.988;2024-01-30T00:08:25;8.03;;;6.63;;
10170;SDS011;5127;50.922;6.988;2024-01-30T00:10:52;8.20;;;6.53;;
10170;SDS011;5127;50.922;6.988;2024-01-30T00:13:20;9.27;;;7.10;;
10170;SDS011;5127;50.922;6.988;2024-01-30T00:15:48;10.20;;;7.00;;
10170;SDS011;5127;50.922;6.988;2024-01-30T00:18:15;10.60;;;6.60;;
10170;SDS011;5127;50.922;6.988;2024-01-30T00:20:44;9.57;;;6.97;;
10170;SDS011;5127;50.922;6.988;2024-01-30T00:23:11;8.97;;;6.80;;
10170;SDS011;5127;50.922;6.988;2024-01-30T00:25:42;8.10;;;7.00;;
10170;SDS011;5127;50.922;6.988;2024-01-30T00:28:10;8.63;;;6.47;;
10170;SDS011;5127;50.922;6.988;2024-01-30T00:30:37;10.10;;;7.07;;
10170;SDS011;5127;50.922;6.988;2024-01-30T00:33:04;8.93;;;6.27;;
10170;SDS011;5127;50.922;6.988;2024-01-30T00:35:32;8.70;;;6.80;;
10170;SDS011;5127;50.922;6.988;2024-01-30T00:37:59;7.83;;;6.33;;
10170;SDS011;5127;50.922;6.988;2024-01-30T00:40:27;8.27;;;6.97;;
10170;SDS011;5127;50.922;6.988;2024-01-30T00:42:56;8.77;;;6.47;;
10170;SDS011;5127;50.922;6.988;2024-01-30T00:45:24;9.53;;;7.07;;
10170;SDS011;5127;50.922;6.988;2024-01-30T00:47:51;9.20;;;6.83;;
10170;SDS011;5127;50.922;6.988;2024-01-30T00:50:18;10.17;;;6.63;;
10170;SDS011;5127;50.922;6.988;2024-01-30T00:52:46;9.43;;;6.70;;
10170;SDS011;5127;50.922;6.988;2024-01-30T00:55:13;7.53;;;6.83;;
10170;SDS011;5127;50.922;6.988;2024-01-30T00:57:43;8.57;;;7.10;;
10170;SDS011;5127;50.922;6.988;2024-01-30T01:00:12;8.93;;;6.70;;
10170;SDS011;5127;50.922;6.988;2024-01-30T01:02:43;10.90;;;7.03;;
10170;SDS011;5127;50.922;6.988;2024-01-30T01:05:11;7.53;;;6.30;;
10170;SDS011;5127;50.922;6.988;2024-01-30T01:07:38;9.87;;;7.07;;
10170;SDS011;5127;50.922;6.988;2024-01-30T01:10:08;8.20;;;6.47;;
10170;SDS011;5127;50.922;6.988;2024-01-30T01:12:37;8.63;;;7.17;;
10170;SDS011;5127;50.922;6.988;2024-01-30T01:15:04;8.67;;;7.07;;
10170;SDS011;5127;50.922;6.988;2024-01-30T01:17:36;8.03;;;6.83;;
10170;SDS011;5127;50.922;6.988;2024-01-30T01:20:04;8.57;;;6.50;;
10170;SDS011;5127;50.922;6.988;2024-01-30T01:22:32;9.47;;;6.57;;
10170;SDS011;5127;50.922;6.988;2024-01-30T01:25:00;8.37;;;6.70;;
10170;SDS011;5127;50.922;6.988;2024-01-30T01:27:28;8.07;;;6.77;;
10170;SDS011;5127;50.922;6.988;2024-01-30T01:29:55;8.87;;;6.67;;
10170;SDS011;5127;50.922;6.988;2024-01-30T01:32:22;7.77;;;6.53;;
10170;SDS011;5127;50.922;6.988;2024-01-30T01:34:51;8.43;;;6.67;;
10170;SDS011;5127;50.922;6.988;2024-01-30T01:37:19;9.07;;;7.00;;
10170;SDS011;5127;50.922;6.988;2024-01-30T01:39:47;7.63;;;6.83;;
10170;SDS011;5127;50.922;6.988;2024-01-30T01:42:15;7.53;;;6.27;;
10170;SDS011;5127;50.922;6.988;2024-01-30T01:44:43;9.60;;;6.83;;
10170;SDS011;5127;50.922;6.988;2024-01-30T01:47:10;8.97;;;6.33;;
10170;SDS011;5127;50.922;6.988;2024-01-30T01:49:38;8.90;;;6.37;;
10170;SDS011;5127;50.922;6.988;2024-01-30T01:52:06;7.63;;;6.77;;
10170;SDS011;5127;50.922;6.988;2024-01-30T01:54:34;10.40;;;6.57;;
10170;SDS011;5127;50.922;6.988;2024-01-30T01:57:02;7.50;;;6.30;;
10170;SDS011;5127;50.922;6.988;2024-01-30T01:59:30;7.27;;;6.23;;
10170;SDS011;5127;50.922;6.988;2024-01-30T02:01:57;10.27;;;6.87;;
10170;SDS011;5127;50.922;6.988;2024-01-30T02:04:25;7.60;;;6.33;;
10170;SDS011;5127;50.922;6.988;2024-01-30T02:06:52;8.20;;;6.30;;
10170;SDS011;5127;50.922;6.988;2024-01-30T02:09:21;8.83;;;6.47;;
10170;SDS011;5127;50.922;6.988;2024-01-30T02:11:48;6.80;;;5.80;;
10170;SDS011;5127;50.922;6.988;2024-01-30T02:14:15;7.37;;;6.10;;
10170;SDS011;5127;50.922;6.988;2024-01-30T02:16:43;7.90;;;6.33;;
10170;SDS011;5127;50.922;6.988;2024-01-30T02:19:10;6.97;;;6.07;;
10170;SDS011;5127;50.922;6.988;2024-01-30T02:21:38;9.57;;;6.47;;
10170;SDS011;5127;50.922;6.988;2024-01-30T02:24:06;9.13;;;6.30;;
10170;SDS011;5127;50.922;6.988;2024-01-30T02:26:33;8.30;;;6.30;;
10170;SDS011;5127;50.922;6.988;2024-01-30T02:29:00;7.43;;;6.27;;
10170;SDS011;5127;50.922;6.988;2024-01-30T02:31:27;8.30;;;6.00;;
10170;SDS011;5127;50.922;6.988;2024-01-30T02:33:55;7.47;;;6.17;;
10170;SDS011;5127;50.922;6.988;2024-01-30T02:36:22;6.87;;;6.07;;
10170;SDS011;5127;50.922;6.988;2024-01-30T02:38:50;7.70;;;5.60;;
10170;SDS011;5127;50.922;6.988;2024-01-30T02:41:18;6.90;;;5.97;;
10170;SDS011;5127;50.922;6.988;2024-01-30T02:43:45;6.97;;;5.73;;
10170;SDS011;5127;50.922;6.988;2024-01-30T02:46:12;9.47;;;6.27;;
10170;SDS011;5127;50.922;6.988;2024-01-30T02:48:39;6.90;;;6.20;;
10170;SDS011;5127;50.922;6.988;2024-01-30T02:51:07;8.43;;;6.03;;
10170;SDS011;5127;50.922;6.988;2024-01-30T02:53:34;7.20;;;5.97;;
10170;SDS011;5127;50.922;6.988;2024-01-30T02:56:03;9.50;;;5.87;;
10170;SDS011;5127;50.922;6.988;2024-01-30T02:58:31;8.07;;;6.03;;
10170;SDS011;5127;50.922;6.988;2024-01-30T03:00:58;7.50;;;5.67;;
10170;SDS011;5127;50.922;6.988;2024-01-30T03:03:26;8.77;;;5.63;;
10170;SDS011;5127;50.922;6.988;2024-01-30T03:05:53;7.00;;;5.73;;
10170;SDS011;5127;50.922;6.988;2024-01-30T03:08:20;7.47;;;5.67;;
10170;SDS011;5127;50.922;6.988;2024-01-30T03:10:48;7.27;;;6.10;;
10170;SDS011;5127;50.922;6.988;2024-01-30T03:13:17;8.03;;;6.03;;
10170;SDS011;5127;50.922;6.988;2024-01-30T03:15:44;7.80;;;5.50;;
10170;SDS011;5127;50.922;6.988;2024-01-30T03:18:11;6.37;;;5.60;;
10170;SDS011;5127;50.922;6.988;2024-01-30T03:20:38;7.87;;;5.70;;
10170;SDS011;5127;50.922;6.988;2024-01-30T03:23:05;7.57;;;5.43;;
10170;SDS011;5127;50.922;6.988;2024-01-30T03:25:33;5.60;;;5.10;;
10170;SDS011;5127;50.922;6.988;2024-01-30T03:28:00;7.97;;;5.40;;
10170;SDS011;5127;50.922;6.988;2024-01-30T03:30:28;6.97;;;5.77;;
10170;SDS011;5127;50.922;6.988;2024-01-30T03:32:56;6.57;;;5.53;;
10170;SDS011;5127;50.922;6.988;2024-01-30T03:35:23;6.37;;;5.07;;
10170;SDS011;5127;50.922;6.988;2024-01-30T03:37:50;8.10;;;5.80;;
10170;SDS011;5127;50.922;6.988;2024-01-30T03:40:17;11.27;;;6.00;;
10170;SDS011;5127;50.922;6.988;2024-01-30T03:42:45;9.53;;;6.03;;
10170;SDS011;5127;50.922;6.988;2024-01-30T03:45:12;7.77;;;5.57;;
10170;SDS011;5127;50.922;6.988;2024-01-30T03:47:41;8.17;;;5.70;;
10170;SDS011;5127;50.922;6.988;2024-01-30T03:50:10;8.13;;;5.73;;
10170;SDS011;5127;50.922;6.988;2024-01-30T03:52:38;8.47;;;6.10;;
10170;SDS011;5127;50.922;6.988;2024-01-30T03:55:05;8.60;;;6.13;;
10170;SDS011;5127;50.922;6.988;2024-01-30T03:57:33;8.13;;;6.87;;
10170;SDS011;5127;50.922;6.988;2024-01-30T04:00:00;6.83;;;6.13;;
10170;SDS011;5127;50.922;6.988;2024-01-30T04:02:37;8.63;;;6.60;;
10170;SDS011;5127;50.922;6.988;2024-01-30T04:05:07;9.47;;;6.63;;
10170;SDS011;5127;50.922;6.988;2024-01-30T04:07:34;10.67;;;6.43;;
10170;SDS011;5127;50.922;6.988;2024-01-30T04:10:02;9.17;;;6.17;;
10170;SDS011;5127;50.922;6.988;2024-01-30T04:12:31;9.13;;;6.70;;
10170;SDS011;5127;50.922;6.988;2024-01-30T04:14:58;12.07;;;7.00;;
10170;SDS011;5127;50.922;6.988;2024-01-30T04:17:25;11.30;;;7.03;;
10170;SDS011;5127;50.922;6.988;2024-01-30T04:19:54;7.83;;;6.70;;
10170;SDS011;5127;50.922;6.988;2024-01-30T04:22:23;9.03;;;6.67;;
10170;SDS011;5127;50.922;6.988;2024-01-30T04:24:50;6.77;;;5.83;;
10170;SDS011;5127;50.922;6.988;2024-01-30T04:27:17;7.50;;;6.70;;
10170;SDS011;5127;50.922;6.988;2024-01-30T04:29:44;7.83;;;6.53;;
10170;SDS011;5127;50.922;6.988;2024-01-30T04:32:12;8.47;;;6.70;;
10170;SDS011;5127;50.922;6.988;2024-01-30T04:34:39;8.83;;;6.73;;
10170;SDS011;5127;50.922;6.988;2024-01-30T04:37:06;8.83;;;6.57;;
10170;SDS011;5127;50.922;6.988;2024-01-30T04:39:35;8.30;;;6.63;;
10170;SDS011;5127;50.922;6.988;2024-01-30T04:42:03;8.00;;;5.90;;
10170;SDS011;5127;50.922;6.988;2024-01-30T04:44:30;7.87;;;6.77;;
10170;SDS011;5127;50.922;6.988;2024-01-30T04:46:58;7.80;;;6.07;;
10170;SDS011;5127;50.922;6.988;2024-01-30T04:49:27;10.43;;;6.87;;
10170;SDS011;5127;50.922;6.988;2024-01-30T04:51:54;7.47;;;6.07;;
10170;SDS011;5127;50.922;6.988;2024-01-30T04:54:22;8.20;;;6.10;;
10170;SDS011;5127;50.922;6.988;2024-01-30T04:56:50;8.23;;;6.77;;
10170;SDS011;5127;50.922;6.988;2024-01-30T04:59:18;10.93;;;6.57;;
10170;SDS011;5127;50.922;6.988;2024-01-30T05:01:46;9.03;;;6.57;;
10170;SDS011;5127;50.922;6.988;2024-01-30T05:04:13;9.53;;;6.47;;
10170;SDS011;5127;50.922;6.988;2024-01-30T05:06:40;7.73;;;6.63;;
10170;SDS011;5127;50.922;6.988;2024-01-30T05:09:08;8.80;;;6.77;;
10170;SDS011;5127;50.922;6.988;2024-01-30T05:11:36;6.90;;;6.30;;
10170;SDS011;5127;50.922;6.988;2024-01-30T05:14:05;10.60;;;7.10;;
10170;SDS011;5127;50.922;6.988;2024-01-30T05:16:34;7.90;;;6.33;;
10170;SDS011;5127;50.922;6.988;2024-01-30T05:19:01;8.50;;;6.47;;
10170;SDS011;5127;50.922;6.988;2024-01-30T05:21:28;8.27;;;6.67;;
10170;SDS011;5127;50.922;6.988;2024-01-30T05:23:55;9.07;;;6.00;;
10170;SDS011;5127;50.922;6.988;2024-01-30T05:26:23;8.10;;;6.87;;
10170;SDS011;5127;50.922;6.988;2024-01-30T05:28:50;9.73;;;6.93;;
10170;SDS011;5127;50.922;6.988;2024-01-30T05:31:18;8.80;;;6.60;;
10170;SDS011;5127;50.922;6.988;2024-01-30T05:33:46;7.50;;;6.50;;
10170;SDS011;5127;50.922;6.988;2024-01-30T05:36:13;8.50;;;6.40;;
10170;SDS011;5127;50.922;6.988;2024-01-30T05:38:41;8.20;;;6.83;;
10170;SDS011;5127;50.922;6.988;2024-01-30T05:41:08;7.20;;;6.47;;
10170;SDS011;5127;50.922;6.988;2024-01-30T05:43:36;7.97;;;7.17;;
10170;SDS011;5127;50.922;6.988;2024-01-30T05:46:03;8.10;;;6.70;;
10170;SDS011;5127;50.922;6.988;2024-01-30T05:48:32;7.47;;;6.40;;
10170;SDS011;5127;50.922;6.988;2024-01-30T05:51:00;7.70;;;6.90;;
10170;SDS011;5127;50.922;6.988;2024-01-30T05:53:29;8.43;;;7.03;;
10170;SDS011;5127;50.922;6.988;2024-01-30T05:55:56;9.50;;;7.20;;
10170;SDS011;5127;50.922;6.988;2024-01-30T05:58:23;8.07;;;6.50;;
10170;SDS011;5127;50.922;6.988;2024-01-30T06:00:51;7.57;;;6.50;;
10170;SDS011;5127;50.922;6.988;2024-01-30T06:03:18;8.20;;;6.83;;
10170;SDS011;5127;50.922;6.988;2024-01-30T06:05:46;8.13;;;6.67;;
10170;SDS011;5127;50.922;6.988;2024-01-30T06:08:14;7.03;;;6.13;;
10170;SDS011;5127;50.922;6.988;2024-01-30T06:10:41;8.43;;;6.67;;
10170;SDS011;5127;50.922;6.988;2024-01-30T06:13:08;9.23;;;6.40;;
10170;SDS011;5127;50.922;6.988;2024-01-30T06:15:35;9.30;;;6.97;;
10170;SDS011;5127;50.922;6.988;2024-01-30T06:18:03;10.07;;;6.47;;
10170;SDS011;5127;50.922;6.988;2024-01-30T06:20:30;8.07;;;6.03;;
10170;SDS011;5127;50.922;6.988;2024-01-30T06:22:59;9.73;;;6.87;;
10170;SDS011;5127;50.922;6.988;2024-01-30T06:25:26;8.50;;;6.57;;
10170;SDS011;5127;50.922;6.988;2024-01-30T06:27:53;7.27;;;6.47;;
10170;SDS011;5127;50.922;6.988;2024-01-30T06:30:21;7.70;;;6.40;;
10170;SDS011;5127;50.922;6.988;2024-01-30T06:32:48;8.27;;;6.50;;
10170;SDS011;5127;50.922;6.988;2024-01-30T06:35:15;8.73;;;6.70;;
10170;SDS011;5127;50.922;6.988;2024-01-30T06:37:43;8.53;;;6.93;;
10170;SDS011;5127;50.922;6.988;2024-01-30T06:40:12;8.43;;;6.97;;
10170;SDS011;5127;50.922;6.988;2024-01-30T06:42:39;8.87;;;6.90;;
10170;SDS011;5127;50.922;6.988;2024-01-30T06:45:07;7.50;;;6.70;;
10170;SDS011;5127;50.922;6.988;2024-01-30T06:47:35;8.70;;;7.30;;
10170;SDS011;5127;50.922;6.988;2024-01-30T06:50:03;9.97;;;7.30;;
10170;SDS011;5127;50.922;6.988;2024-01-30T06:52:30;9.93;;;7.37;;
10170;SDS011;5127;50.922;6.988;2024-01-30T06:54:57;10.33;;;7.33;;
10170;SDS011;5127;50.922;6.988;2024-01-30T06:57:26;8.87;;;6.80;;
10170;SDS011;5127;50.922;6.988;2024-01-30T06:59:56;9.67;;;6.93;;
10170;SDS011;5127;50.922;6.988;2024-01-30T07:02:23;8.33;;;6.67;;
10170;SDS011;5127;50.922;6.988;2024-01-30T07:04:50;7.77;;;6.50;;
10170;SDS011;5127;50.922;6.988;2024-01-30T07:07:17;7.60;;;6.47;;
10170;SDS011;5127;50.922;6.988;2024-01-30T07:09:45;11.47;;;6.70;;
10170;SDS011;5127;50.922;6.988;2024-01-30T07:12:15;8.30;;;6.60;;
10170;SDS011;5127;50.922;6.988;2024-01-30T07:14:43;10.13;;;6.77;;
10170;SDS011;5127;50.922;6.988;2024-01-30T07:17:11;10.47;;;6.40;;
10170;SDS011;5127;50.922;6.988;2024-01-30T07:19:38;10.10;;;6.60;;
10170;SDS011;5127;50.922;6.988;2024-01-30T07:22:05;7.70;;;6.70;;
10170;SDS011;5127;50.922;6.988;2024-01-30T07:24:33;9.70;;;6.77;;
10170;SDS011;5127;50.922;6.988;2024-01-30T07:27:00;7.50;;;5.80;;
10170;SDS011;5127;50.922;6.988;2024-01-30T07:29:27;8.43;;;6.47;;
10170;SDS011;5127;50.922;6.988;2024-01-30T07:31:56;10.40;;;6.67;;
10170;SDS011;5127;50.922;6.988;2024-01-30T07:34:23;7.77;;;6.43;;
10170;SDS011;5127;50.922;6.988;2024-01-30T07:36:51;8.53;;;6.73;;
10170;SDS011;5127;50.922;6.988;2024-01-30T07:39:18;9.30;;;6.80;;
10170;SDS011;5127;50.922;6.988;2024-01-30T07:41:45;8.60;;;6.60;;
10170;SDS011;5127;50.922;6.988;2024-01-30T07:44:12;8.27;;;6.83;;
10170;SDS011;5127;50.922;6.988;2024-01-30T07:46:39;8.00;;;6.43;;
10170;SDS011;5127;50.922;6.988;2024-01-30T07:49:08;7.80;;;6.47;;
10170;SDS011;5127;50.922;6.988;2024-01-30T07:51:36;9.20;;;6.27;;
10170;SDS011;5127;50.922;6.988;2024-01-30T07:54:03;7.30;;;6.57;;
10170;SDS011;5127;50.922;6.988;2024-01-30T07:56:30;7.27;;;6.10;;
10170;SDS011;5127;50.922;6.988;2024-01-30T07:58:57;9.53;;;6.93;;
10170;SDS011;5127;50.922;6.988;2024-01-30T08:01:25;7.33;;;6.40;;
10170;SDS011;5127;50.922;6.988;2024-01-30T08:03:53;8.13;;;6.80;;
10170;SDS011;5127;50.922;6.988;2024-01-30T08:06:21;8.47;;;6.47;;
10170;SDS011;5127;50.922;6.988;2024-01-30T08:08:49;7.40;;;6.40;;
10170;SDS011;5127;50.922;6.988;2024-01-30T08:11:19;8.80;;;6.70;;
10170;SDS011;5127;50.922;6.988;2024-01-30T08:13:51;9.33;;;6.17;;
10170;SDS011;5127;50.922;6.988;2024-01-30T08:16:18;8.03;;;6.70;;
10170;SDS011;5127;50.922;6.988;2024-01-30T08:18:45;7.47;;;6.60;;
10170;SDS011;5127;50.922;6.988;2024-01-30T08:21:12;9.70;;;6.87;;
10170;SDS011;5127;50.922;6.988;2024-01-30T08:23:41;8.27;;;6.83;;
10170;SDS011;5127;50.922;6.988;2024-01-30T08:26:09;8.57;;;5.93;;
10170;SDS011;5127;50.922;6.988;2024-01-30T08:28:36;8.90;;;6.43;;
10170;SDS011;5127;50.922;6.988;2024-01-30T08:31:03;9.27;;;6.50;;
10170;SDS011;5127;50.922;6.988;2024-01-30T08:33:31;7.97;;;6.50;;
10170;SDS011;5127;50.922;6.988;2024-01-30T08:35:58;9.77;;;6.70;;
10170;SDS011;5127;50.922;6.988;2024-01-30T08:38:25;9.67;;;6.70;;
10170;SDS011;5127;50.922;6.988;2024-01-30T08:40:54;10.90;;;6.40;;
10170;SDS011;5127;50.922;6.988;2024-01-30T08:43:21;7.20;;;6.33;;
10170;SDS011;5127;50.922;6.988;2024-01-30T08:45:49;8.20;;;6.67;;
10170;SDS011;5127;50.922;6.988;2024-01-30T08:48:16;7.90;;;6.77;;
10170;SDS011;5127;50.922;6.988;2024-01-30T08:50:44;7.87;;;6.67;;
10170;SDS011;5127;50.922;6.988;2024-01-30T08:53:11;8.50;;;6.47;;
10170;SDS011;5127;50.922;6.988;2024-01-30T08:55:38;8.37;;;6.57;;
10170;SDS011;5127;50.922;6.988;2024-01-30T08:58:07;7.10;;;5.83;;
10170;SDS011;5127;50.922;6.988;2024-01-30T09:00:34;7.07;;;6.03;;
10170;SDS011;5127;50.922;6.988;2024-01-30T09:03:02;9.53;;;7.13;;
10170;SDS011;5127;50.922;6.988;2024-01-30T09:05:29;7.73;;;6.70;;
10170;SDS011;5127;50.922;6.988;2024-01-30T09:07:56;7.20;;;6.23;;
10170;SDS011;5127;50.922;6.988;2024-01-30T09:10:23;8.47;;;6.50;;
10170;SDS011;5127;50.922;6.988;2024-01-30T09:12:51;7.43;;;6.70;;
10170;SDS011;5127;50.922;6.988;2024-01-30T09:15:19;9.60;;;6.50;;
10170;SDS011;5127;50.922;6.988;2024-01-30T09:17:47;8.07;;;6.83;;
10170;SDS011;5127;50.922;6.988;2024-01-30T09:20:14;8.27;;;6.67;;
10170;SDS011;5127;50.922;6.988;2024-01-30T09:22:41;8.53;;;6.80;;
10170;SDS011;5127;50.922;6.988;2024-01-30T09:25:08;8.23;;;6.70;;
10170;SDS011;5127;50.922;6.988;2024-01-30T09:27:36;9.47;;;6.70;;
10170;SDS011;5127;50.922;6.988;2024-01-30T09:30:03;8.03;;;6.60;;
10170;SDS011;5127;50.922;6.988;2024-01-30T09:32:33;7.87;;;6.13;;
10170;SDS011;5127;50.922;6.988;2024-01-30T09:35:00;9.20;;;6.83;;
10170;SDS011;5127;50.922;6.988;2024-01-30T09:37:27;8.37;;;6.67;;
10170;SDS011;5127;50.922;6.988;2024-01-30T09:39:54;9.20;;;6.30;;
10170;SDS011;5127;50.922;6.988;2024-01-30T09:42:25;8.03;;;6.13;;
10170;SDS011;5127;50.922;6.988;2024-01-30T09:44:54;7.50;;;5.77;;
10170;SDS011;5127;50.922;6.988;2024-01-30T09:47:22;8.37;;;6.67;;
10170;SDS011;5127;50.922;6.988;2024-01-30T09:49:51;7.97;;;6.57;;
10170;SDS011;5127;50.922;6.988;2024-01-30T09:52:19;9.03;;;6.33;;
10170;SDS011;5127;50.922;6.988;2024-01-30T09:54:46;8.40;;;6.37;;
10170;SDS011;5127;50.922;6.988;2024-01-30T09:57:16;8.03;;;6.33;;
10170;SDS011;5127;50.922;6.988;2024-01-30T09:59:43;7.23;;;6.53;;
10170;SDS011;5127;50.922;6.988;2024-01-30T10:02:10;7.83;;;6.03;;
10170;SDS011;5127;50.922;6.988;2024-01-30T10:04:37;6.87;;;5.87;;
10170;SDS011;5127;50.922;6.988;2024-01-30T10:07:06;7.50;;;6.07;;
10170;SDS011;5127;50.922;6.988;2024-01-30T10:09:36;8.57;;;6.27;;
10170;SDS011;5127;50.922;6.988;2024-01-30T10:12:04;7.93;;;6.17;;
10170;SDS011;5127;50.922;6.988;2024-01-30T10:14:33;9.43;;;5.93;;
10170;SDS011;5127;50.922;6.988;2024-01-30T10:17:01;7.80;;;5.73;;
10170;SDS011;5127;50.922;6.988;2024-01-30T10:19:28;7.17;;;5.60;;
10170;SDS011;5127;50.922;6.988;2024-01-30T10:21:56;6.77;;;6.07;;
10170;SDS011;5127;50.922;6.988;2024-01-30T10:24:25;7.10;;;6.20;;
10170;SDS011;5127;50.922;6.988;2024-01-30T10:26:54;6.30;;;5.53;;
10170;SDS011;5127;50.922;6.988;2024-01-30T10:29:22;10.70;;;6.33;;
10170;SDS011;5127;50.922;6.988;2024-01-30T10:31:57;9.73;;;6.47;;
10170;SDS011;5127;50.922;6.988;2024-01-30T10:34:25;9.20;;;5.83;;
10170;SDS011;5127;50.922;6.988;2024-01-30T10:36:55;9.00;;;5.90;;
10170;SDS011;5127;50.922;6.988;2024-01-30T10:39:31;7.70;;;5.90;;
10170;SDS011;5127;50.922;6.988;2024-01-30T10:42:04;9.43;;;6.33;;
10170;SDS011;5127;50.922;6.988;2024-01-30T10:44:34;7.47;;;6.03;;
10170;SDS011;5127;50.922;6.988;2024-01-30T10:47:06;8.00;;;6.27;;
10170;SDS011;5127;50.922;6.988;2024-01-30T10:49:37;7.63;;;6.43;;
10170;SDS011;5127;50.922;6.988;2024-01-30T10:52:06;6.40;;;5.57;;
10170;SDS011;5127;50.922;6.988;2024-01-30T10:54:37;7.40;;;6.13;;
10170;SDS011;5127;50.922;6.988;2024-01-30T10:57:05;6.93;;;6.03;;
10170;SDS011;5127;50.922;6.988;2024-01-30T10:59:34;6.13;;;5.50;;
10170;SDS011;5127;50.922;6.988;2024-01-30T11:02:02;8.43;;;6.23;;
10170;SDS011;5127;50.922;6.988;2024-01-30T11:04:35;6.80;;;5.63;;
10170;SDS011;5127;50.922;6.988;2024-01-30T11:07:03;7.27;;;5.70;;
10170;SDS011;5127;50.922;6.988;2024-01-30T11:09:47;7.97;;;6.10;;
10170;SDS011;5127;50.922;6.988;2024-01-30T11:12:15;8.43;;;6.03;;
10170;SDS011;5127;50.922;6.988;2024-01-30T11:14:42;7.40;;;6.00;;
10170;SDS011;5127;50.922;6.988;2024-01-30T11:17:09;8.90;;;5.90;;
10170;SDS011;5127;50.922;6.988;2024-01-30T11:19:38;9.40;;;5.50;;
10170;SDS011;5127;50.922;6.988;2024-01-30T11:22:06;7.57;;;5.73;;
10170;SDS011;5127;50.922;6.988;2024-01-30T11:24:36;7.17;;;5.83;;
10170;SDS011;5127;50.922;6.988;2024-01-30T11:27:09;7.77;;;5.70;;
10170;SDS011;5127;50.922;6.988;2024-01-30T11:29:49;6.23;;;5.57;;
10170;SDS011;5127;50.922;6.988;2024-01-30T11:32:22;6.47;;;5.67;;
10170;SDS011;5127;50.922;6.988;2024-01-30T11:34:50;6.93;;;5.67;;
10170;SDS011;5127;50.922;6.988;2024-01-30T11:37:18;8.00;;;5.63;;
10170;SDS011;5127;50.922;6.988;2024-01-30T11:39:50;7.73;;;5.43;;
10170;SDS011;5127;50.922;6.988;2024-01-30T11:42:19;5.80;;;5.03;;
10170;SDS011;5127;50.922;6.988;2024-01-30T11:44:47;6.03;;;5.30;;
10170;SDS011;5127;50.922;6.988;2024-01-30T11:47:15;6.63;;;5.70;;
10170;SDS011;5127;50.922;6.988;2024-01-30T11:49:43;7.37;;;5.27;;
10170;SDS011;5127;50.922;6.988;2024-01-30T11:52:10;5.83;;;5.30;;
10170;SDS011;5127;50.922;6.988;2024-01-30T11:54:39;8.67;;;6.10;;
10170;SDS011;5127;50.922;6.988;2024-01-30T11:57:07;6.73;;;5.30;;
10170;SDS011;5127;50.922;6.988;2024-01-30T11:59:35;7.27;;;5.30;;
10170;SDS011;5127;50.922;6.988;2024-01-30T12:02:02;7.47;;;5.33;;
10170;SDS011;5127;50.922;6.988;2024-01-30T12:04:30;7.40;;;5.03;;
10170;SDS011;5127;50.922;6.988;2024-01-30T12:06:57;8.10;;;5.30;;
10170;SDS011;5127;50.922;6.988;2024-01-30T12:09:25;7.97;;;4.77;;
10170;SDS011;5127;50.922;6.988;2024-01-30T12:11:53;6.07;;;4.97;;
10170;SDS011;5127;50.922;6.988;2024-01-30T12:14:20;5.20;;;4.53;;
10170;SDS011;5127;50.922;6.988;2024-01-30T12:16:52;10.97;;;5.10;;
10170;SDS011;5127;50.922;6.988;2024-01-30T12:19:22;7.20;;;4.60;;
10170;SDS011;5127;50.922;6.988;2024-01-30T12:21:58;4.97;;;4.47;;
10170;SDS011;5127;50.922;6.988;2024-01-30T12:24:26;5.47;;;4.90;;
10170;SDS011;5127;50.922;6.988;2024-01-30T12:26:56;5.27;;;4.33;;
10170;SDS011;5127;50.922;6.988;2024-01-30T12:29:24;5.40;;;4.67;;
10170;SDS011;5127;50.922;6.988;2024-01-30T12:31:54;6.73;;;4.70;;
10170;SDS011;5127;50.922;6.988;2024-01-30T12:34:24;5.93;;;4.60;;
10170;SDS011;5127;50.922;6.988;2024-01-30T12:36:52;6.37;;;4.50;;
10170;SDS011;5127;50.922;6.988;2024-01-30T12:39:19;8.70;;;4.40;;
10170;SDS011;5127;50.922;6.988;2024-01-30T12:41:47;6.23;;;4.57;;
10170;SDS011;5127;50.922;6.988;2024-01-30T12:44:14;6.17;;;4.80;;
10170;SDS011;5127;50.922;6.988;2024-01-30T12:46:42;6.10;;;4.47;;
10170;SDS011;5127;50.922;6.988;2024-01-30T12:49:10;4.60;;;4.13;;
10170;SDS011;5127;50.922;6.988;2024-01-30T12:51:38;5.63;;;5.07;;
10170;SDS011;5127;50.922;6.988;2024-01-30T12:54:05;8.50;;;5.07;;
10170;SDS011;5127;50.922;6.988;2024-01-30T12:56:33;6.47;;;4.93;;
10170;SDS011;5127;50.922;6.988;2024-01-30T12:59:00;5.33;;;4.70;;
10170;SDS011;5127;50.922;6.988;2024-01-30T13:01:27;6.00;;;4.77;;
10170;SDS011;5127;50.922;6.988;2024-01-30T13:03:55;7.03;;;4.77;;
10170;SDS011;5127;50.922;6.988;2024-01-30T13:06:25;6.10;;;5.07;;
10170;SDS011;5127;50.922;6.988;2024-01-30T13:08:52;7.23;;;4.83;;
10170;SDS011;5127;50.922;6.988;2024-01-30T13:11:19;5.67;;;4.43;;
10170;SDS011;5127;50.922;6.988;2024-01-30T13:13:47;7.20;;;4.50;;
10170;SDS011;5127;50.922;6.988;2024-01-30T13:16:14;5.47;;;4.57;;
10170;SDS011;5127;50.922;6.988;2024-01-30T13:18:42;6.23;;;4.57;;
10170;SDS011;5127;50.922;6.988;2024-01-30T13:21:10;6.40;;;4.93;;
10170;SDS011;5127;50.922;6.988;2024-01-30T13:23:38;5.70;;;4.37;;
10170;SDS011;5127;50.922;6.988;2024-01-30T13:26:06;6.60;;;4.67;;
10170;SDS011;5127;50.922;6.988;2024-01-30T13:28:33;6.60;;;4.70;;
10170;SDS011;5127;50.922;6.988;2024-01-30T13:31:00;6.47;;;5.00;;
10170;SDS011;5127;50.922;6.988;2024-01-30T13:33:27;8.20;;;5.07;;
10170;SDS011;5127;50.922;6.988;2024-01-30T13:35:55;6.17;;;4.93;;
10170;SDS011;5127;50.922;6.988;2024-01-30T13:38:22;6.13;;;4.50;;
10170;SDS011;5127;50.922;6.988;2024-01-30T13:40:50;6.30;;;4.63;;
10170;SDS011;5127;50.922;6.988;2024-01-30T13:43:18;6.23;;;5.00;;
10170;SDS011;5127;50.922;6.988;2024-01-30T13:45:45;5.10;;;4.47;;
10170;SDS011;5127;50.922;6.988;2024-01-30T13:48:12;5.53;;;4.23;;
10170;SDS011;5127;50.922;6.988;2024-01-30T13:50:39;6.23;;;4.60;;
10170;SDS011;5127;50.922;6.988;2024-01-30T13:53:07;5.90;;;4.50;;
10170;SDS011;5127;50.922;6.988;2024-01-30T13:55:34;8.23;;;4.77;;
10170;SDS011;5127;50.922;6.988;2024-01-30T13:58:02;6.03;;;5.13;;
10170;SDS011;5127;50.922;6.988;2024-01-30T14:00:30;7.37;;;5.27;;
10170;SDS011;5127;50.922;6.988;2024-01-30T14:02:57;10.33;;;6.13;;
10170;SDS011;5127;50.922;6.988;2024-01-30T14:05:25;8.07;;;6.10;;
10170;SDS011;5127;50.922;6.988;2024-01-30T14:07:53;8.73;;;6.13;;
10170;SDS011;5127;50.922;6.988;2024-01-30T14:10:20;7.77;;;5.63;;
10170;SDS011;5127;50.922;6.988;2024-01-30T14:12:47;9.40;;;5.23;;
10170;SDS011;5127;50.922;6.988;2024-01-30T14:15:16;5.60;;;4.87;;
10170;SDS011;5127;50.922;6.988;2024-01-30T14:17:43;7.03;;;4.53;;
10170;SDS011;5127;50.922;6.988;2024-01-30T14:20:14;6.23;;;4.63;;
10170;SDS011;5127;50.922;6.988;2024-01-30T14:22:42;9.87;;;4.90;;
10170;SDS011;5127;50.922;6.988;2024-01-30T14:25:09;7.33;;;4.50;;
10170;SDS011;5127;50.922;6.988;2024-01-30T14:27:37;5.67;;;4.60;;
10170;SDS011;5127;50.922;6.988;2024-01-30T14:30:05;6.97;;;4.90;;
10170;SDS011;5127;50.922;6.988;2024-01-30T14:32:38;6.90;;;4.67;;
10170;SDS011;5127;50.922;6.988;2024-01-30T14:35:06;7.30;;;4.80;;
10170;SDS011;5127;50.922;6.988;2024-01-30T14:37:34;7.13;;;5.00;;
10170;SDS011;5127;50.922;6.988;2024-01-30T14:40:02;6.60;;;5.10;;
10170;SDS011;5127;50.922;6.988;2024-01-30T14:42:30;5.87;;;4.40;;
10170;SDS011;5127;50.922;6.988;2024-01-30T14:44:58;6.70;;;4.57;;
10170;SDS011;5127;50.922;6.988;2024-01-30T14:47:25;7.60;;;4.83;;
10170;SDS011;5127;50.922;6.988;2024-01-30T14:49:54;7.53;;;4.77;;
10170;SDS011;5127;50.922;6.988;2024-01-30T14:52:21;9.17;;;4.87;;
10170;SDS011;5127;50.922;6.988;2024-01-30T14:54:49;7.40;;;5.00;;
10170;SDS011;5127;50.922;6.988;2024-01-30T14:57:16;6.57;;;4.53;;
10170;SDS011;5127;50.922;6.988;2024-01-30T14:59:43;8.50;;;3.90;;
10170;SDS011;5127;50.922;6.988;2024-01-30T15:02:11;7.27;;;4.60;;
10170;SDS011;5127;50.922;6.988;2024-01-30T15:04:38;8.13;;;4.33;;